sensor_id;sensor_type;location;lat;lon;timestamp;temperature;humidity
23560;DHT22;11958;50.836;4.438;2023-02-28T00:00:30;1.20;64.30
23560;DHT22;11958;50.836;4.438;2023-02-28T00:02:56;1.30;64.20
23560;DHT22;11958;50.836;4.438;2023-02-28T00:05:24;1.30;63.80
23560;DHT22;11958;50.836;4.438;2023-02-28T00:07:50;1.20;64.10
23560;DHT22;11958;50.836;4.438;2023-02-28T00:13:41;1.10;64.10
23560;DHT22;11958;50.836;4.438;2023-02-28T00:20:37;1.10;64.30
23560;DHT22;11958;50.836;4.438;2023-02-28T00:30:33;1.20;63.40
23560;DHT22;11958;50.836;4.438;2023-02-28T00:37:25;1.40;64.10
23560;DHT22;11958;50.836;4.438;2023-02-28T00:40:14;1.00;64.20
23560;DHT22;11958;50.836;4.438;2023-02-28T00:43:21;0.90;64.70
23560;DHT22;11958;50.836;4.438;2023-02-28T00:46:21;1.10;64.50
23560;DHT22;11958;50.836;4.438;2023-02-28T01:07:30;0.60;67.20
23560;DHT22;11958;50.836;4.438;2023-02-28T01:09:56;0.80;67.60
23560;DHT22;11958;50.836;4.438;2023-02-28T01:12:37;0.70;67.20
23560;DHT22;11958;50.836;4.438;2023-02-28T01:18:04;0.70;67.10
23560;DHT22;11958;50.836;4.438;2023-02-28T01:20:39;0.60;67.10
23560;DHT22;11958;50.836;4.438;2023-02-28T01:23:04;0.60;67.40
23560;DHT22;11958;50.836;4.438;2023-02-28T01:25:30;0.80;67.30
23560;DHT22;11958;50.836;4.438;2023-02-28T01:27:56;0.70;67.20
23560;DHT22;11958;50.836;4.438;2023-02-28T01:30:21;0.90;67.00
23560;DHT22;11958;50.836;4.438;2023-02-28T01:32:47;0.70;66.80
23560;DHT22;11958;50.836;4.438;2023-02-28T01:35:13;0.70;66.90
23560;DHT22;11958;50.836;4.438;2023-02-28T01:37:39;0.60;66.90
23560;DHT22;11958;50.836;4.438;2023-02-28T01:40:05;0.50;67.30
23560;DHT22;11958;50.836;4.438;2023-02-28T01:42:31;0.40;67.30
23560;DHT22;11958;50.836;4.438;2023-02-28T01:45:00;0.60;67.30
23560;DHT22;11958;50.836;4.438;2023-02-28T01:47:36;0.40;67.30
23560;DHT22;11958;50.836;4.438;2023-02-28T01:50:07;0.50;66.80
23560;DHT22;11958;50.836;4.438;2023-02-28T01:52:37;1.10;65.50
23560;DHT22;11958;50.836;4.438;2023-02-28T01:55:04;0.80;65.70
23560;DHT22;11958;50.836;4.438;2023-02-28T01:57:35;0.70;65.90
23560;DHT22;11958;50.836;4.438;2023-02-28T02:00:13;0.70;66.90
23560;DHT22;11958;50.836;4.438;2023-02-28T02:02:43;0.50;67.80
23560;DHT22;11958;50.836;4.438;2023-02-28T02:05:14;0.40;68.20
23560;DHT22;11958;50.836;4.438;2023-02-28T02:07:42;0.30;68.60
23560;DHT22;11958;50.836;4.438;2023-02-28T02:36:39;0.00;70.50
23560;DHT22;11958;50.836;4.438;2023-02-28T02:38:47;0.10;70.80
23560;DHT22;11958;50.836;4.438;2023-02-28T02:44:12;-0.10;70.60
23560;DHT22;11958;50.836;4.438;2023-02-28T02:46:42;0.10;70.90
23560;DHT22;11958;50.836;4.438;2023-02-28T02:49:10;0.20;70.70
23560;DHT22;11958;50.836;4.438;2023-02-28T02:51:41;0.10;71.10
23560;DHT22;11958;50.836;4.438;2023-02-28T02:57:35;0.10;70.10
23560;DHT22;11958;50.836;4.438;2023-02-28T03:00:04;0.20;70.50
23560;DHT22;11958;50.836;4.438;2023-02-28T03:02:34;0.20;71.00
23560;DHT22;11958;50.836;4.438;2023-02-28T03:05:07;0.00;71.20
23560;DHT22;11958;50.836;4.438;2023-02-28T03:07:36;0.20;72.00
23560;DHT22;11958;50.836;4.438;2023-02-28T03:10:32;0.00;72.20
23560;DHT22;11958;50.836;4.438;2023-02-28T03:16:11;-0.10;72.20
23560;DHT22;11958;50.836;4.438;2023-02-28T03:21:53;-0.10;72.70
23560;DHT22;11958;50.836;4.438;2023-02-28T03:24:37;-0.20;72.80
23560;DHT22;11958;50.836;4.438;2023-02-28T03:29:46;-0.10;72.80
23560;DHT22;11958;50.836;4.438;2023-02-28T03:32:26;0.00;72.90
23560;DHT22;11958;50.836;4.438;2023-02-28T03:35:02;-0.20;72.80
23560;DHT22;11958;50.836;4.438;2023-02-28T03:37:36;-0.10;73.10
23560;DHT22;11958;50.836;4.438;2023-02-28T03:40:17;-0.20;72.60
23560;DHT22;11958;50.836;4.438;2023-02-28T03:42:47;-0.30;72.80
23560;DHT22;11958;50.836;4.438;2023-02-28T03:45:18;-0.20;73.30
23560;DHT22;11958;50.836;4.438;2023-02-28T03:48:03;-0.20;72.70
23560;DHT22;11958;50.836;4.438;2023-02-28T03:50:37;-0.10;72.40
23560;DHT22;11958;50.836;4.438;2023-02-28T03:57:22;0.00;71.80
23560;DHT22;11958;50.836;4.438;2023-02-28T04:02:39;-0.30;72.00
23560;DHT22;11958;50.836;4.438;2023-02-28T04:05:10;-0.10;71.40
23560;DHT22;11958;50.836;4.438;2023-02-28T04:07:36;0.00;71.40
23560;DHT22;11958;50.836;4.438;2023-02-28T04:10:09;0.10;71.90
23560;DHT22;11958;50.836;4.438;2023-02-28T04:12:35;-0.30;72.50
23560;DHT22;11958;50.836;4.438;2023-02-28T04:15:12;-0.40;72.70
23560;DHT22;11958;50.836;4.438;2023-02-28T04:18:05;-0.20;72.80
23560;DHT22;11958;50.836;4.438;2023-02-28T04:20:31;-0.40;72.90
23560;DHT22;11958;50.836;4.438;2023-02-28T04:23:02;-0.50;73.40
23560;DHT22;11958;50.836;4.438;2023-02-28T04:25:38;-0.40;73.10
23560;DHT22;11958;50.836;4.438;2023-02-28T04:28:28;-0.30;72.70
23560;DHT22;11958;50.836;4.438;2023-02-28T04:31:01;-0.40;72.80
23560;DHT22;11958;50.836;4.438;2023-02-28T04:33:31;-0.30;72.20
23560;DHT22;11958;50.836;4.438;2023-02-28T04:36:01;-0.40;72.50
23560;DHT22;11958;50.836;4.438;2023-02-28T04:38:28;-0.10;72.30
23560;DHT22;11958;50.836;4.438;2023-02-28T04:41:00;-0.30;72.60
23560;DHT22;11958;50.836;4.438;2023-02-28T04:43:26;-0.30;72.70
23560;DHT22;11958;50.836;4.438;2023-02-28T04:46:05;-0.10;72.40
23560;DHT22;11958;50.836;4.438;2023-02-28T04:52:02;-0.30;72.20
23560;DHT22;11958;50.836;4.438;2023-02-28T04:55:13;-0.30;72.30
23560;DHT22;11958;50.836;4.438;2023-02-28T04:57:41;-0.50;72.90
23560;DHT22;11958;50.836;4.438;2023-02-28T05:00:14;-0.20;73.30
23560;DHT22;11958;50.836;4.438;2023-02-28T05:02:43;-0.20;73.00
23560;DHT22;11958;50.836;4.438;2023-02-28T05:05:47;0.00;72.00
23560;DHT22;11958;50.836;4.438;2023-02-28T05:08:18;0.00;72.30
23560;DHT22;11958;50.836;4.438;2023-02-28T05:11:07;0.00;71.90
23560;DHT22;11958;50.836;4.438;2023-02-28T05:14:22;0.00;72.50
23560;DHT22;11958;50.836;4.438;2023-02-28T05:17:11;0.20;71.70
23560;DHT22;11958;50.836;4.438;2023-02-28T05:19:37;0.00;71.90
23560;DHT22;11958;50.836;4.438;2023-02-28T05:22:03;0.10;72.00
23560;DHT22;11958;50.836;4.438;2023-02-28T05:24:30;0.10;71.70
23560;DHT22;11958;50.836;4.438;2023-02-28T05:29:59;0.10;72.40
23560;DHT22;11958;50.836;4.438;2023-02-28T05:32:44;0.50;70.80
23560;DHT22;11958;50.836;4.438;2023-02-28T05:38:42;1.00;68.30
23560;DHT22;11958;50.836;4.438;2023-02-28T05:47:47;1.10;68.00
23560;DHT22;11958;50.836;4.438;2023-02-28T05:50:13;1.10;67.40
23560;DHT22;11958;50.836;4.438;2023-02-28T05:55:48;0.60;69.30
23560;DHT22;11958;50.836;4.438;2023-02-28T05:58:23;0.90;69.20
23560;DHT22;11958;50.836;4.438;2023-02-28T06:01:41;1.00;68.70
23560;DHT22;11958;50.836;4.438;2023-02-28T06:15:15;0.90;69.30
23560;DHT22;11958;50.836;4.438;2023-02-28T06:18:19;1.60;67.60
23560;DHT22;11958;50.836;4.438;2023-02-28T06:21:12;1.10;68.00
23560;DHT22;11958;50.836;4.438;2023-02-28T06:23:41;1.30;68.20
23560;DHT22;11958;50.836;4.438;2023-02-28T06:26:19;1.10;67.30
23560;DHT22;11958;50.836;4.438;2023-02-28T06:28:48;1.20;68.40
23560;DHT22;11958;50.836;4.438;2023-02-28T06:31:22;1.00;68.40
23560;DHT22;11958;50.836;4.438;2023-02-28T06:34:14;0.80;69.20
23560;DHT22;11958;50.836;4.438;2023-02-28T06:36:43;1.00;67.70
23560;DHT22;11958;50.836;4.438;2023-02-28T06:39:09;1.10;68.10
23560;DHT22;11958;50.836;4.438;2023-02-28T06:41:35;1.20;67.40
23560;DHT22;11958;50.836;4.438;2023-02-28T06:44:12;1.00;68.10
23560;DHT22;11958;50.836;4.438;2023-02-28T06:46:42;1.00;68.90
23560;DHT22;11958;50.836;4.438;2023-02-28T06:49:08;1.50;67.40
23560;DHT22;11958;50.836;4.438;2023-02-28T06:51:36;1.40;66.90
23560;DHT22;11958;50.836;4.438;2023-02-28T06:54:27;1.10;68.00
23560;DHT22;11958;50.836;4.438;2023-02-28T06:56:52;1.20;67.80
23560;DHT22;11958;50.836;4.438;2023-02-28T06:59:37;1.20;68.00
23560;DHT22;11958;50.836;4.438;2023-02-28T07:02:14;1.00;68.50
23560;DHT22;11958;50.836;4.438;2023-02-28T07:04:57;1.20;68.40
23560;DHT22;11958;50.836;4.438;2023-02-28T07:07:23;1.20;67.70
23560;DHT22;11958;50.836;4.438;2023-02-28T07:09:49;1.10;68.60
23560;DHT22;11958;50.836;4.438;2023-02-28T07:12:14;1.30;68.40
23560;DHT22;11958;50.836;4.438;2023-02-28T07:15:01;1.20;68.90
23560;DHT22;11958;50.836;4.438;2023-02-28T07:17:45;1.40;68.20
23560;DHT22;11958;50.836;4.438;2023-02-28T07:20:20;1.60;67.60
23560;DHT22;11958;50.836;4.438;2023-02-28T07:22:46;1.40;67.80
23560;DHT22;11958;50.836;4.438;2023-02-28T07:27:51;1.20;67.40
23560;DHT22;11958;50.836;4.438;2023-02-28T07:32:54;1.50;67.30
23560;DHT22;11958;50.836;4.438;2023-02-28T07:35:41;1.60;67.10
23560;DHT22;11958;50.836;4.438;2023-02-28T07:38:13;1.60;67.20
23560;DHT22;11958;50.836;4.438;2023-02-28T07:40:48;1.30;67.40
23560;DHT22;11958;50.836;4.438;2023-02-28T07:43:19;1.70;67.00
23560;DHT22;11958;50.836;4.438;2023-02-28T07:45:47;1.60;67.20
23560;DHT22;11958;50.836;4.438;2023-02-28T07:48:37;1.50;66.80
23560;DHT22;11958;50.836;4.438;2023-02-28T07:51:10;1.70;66.60
23560;DHT22;11958;50.836;4.438;2023-02-28T07:53:35;1.80;65.70
23560;DHT22;11958;50.836;4.438;2023-02-28T07:56:02;1.90;65.60
23560;DHT22;11958;50.836;4.438;2023-02-28T07:58:44;2.00;65.30
23560;DHT22;11958;50.836;4.438;2023-02-28T08:01:16;1.90;64.00
23560;DHT22;11958;50.836;4.438;2023-02-28T08:03:42;1.80;64.00
23560;DHT22;11958;50.836;4.438;2023-02-28T08:06:50;2.10;63.60
23560;DHT22;11958;50.836;4.438;2023-02-28T08:09:42;2.00;62.20
23560;DHT22;11958;50.836;4.438;2023-02-28T08:12:09;2.10;62.20
23560;DHT22;11958;50.836;4.438;2023-02-28T08:14:35;2.20;61.60
23560;DHT22;11958;50.836;4.438;2023-02-28T08:17:07;2.20;60.90
23560;DHT22;11958;50.836;4.438;2023-02-28T08:19:38;2.10;60.70
23560;DHT22;11958;50.836;4.438;2023-02-28T08:22:04;2.30;60.40
23560;DHT22;11958;50.836;4.438;2023-02-28T08:24:46;2.80;59.10
23560;DHT22;11958;50.836;4.438;2023-02-28T08:27:11;2.70;58.70
23560;DHT22;11958;50.836;4.438;2023-02-28T08:29:41;2.50;59.10
23560;DHT22;11958;50.836;4.438;2023-02-28T08:32:10;2.90;58.10
23560;DHT22;11958;50.836;4.438;2023-02-28T08:34:45;2.90;57.50
23560;DHT22;11958;50.836;4.438;2023-02-28T08:37:11;2.90;56.60
23560;DHT22;11958;50.836;4.438;2023-02-28T08:39:54;2.40;57.20
23560;DHT22;11958;50.836;4.438;2023-02-28T08:42:20;2.40;56.60
23560;DHT22;11958;50.836;4.438;2023-02-28T08:44:45;2.50;57.80
23560;DHT22;11958;50.836;4.438;2023-02-28T08:47:12;2.70;56.10
23560;DHT22;11958;50.836;4.438;2023-02-28T08:49:38;3.30;55.50
23560;DHT22;11958;50.836;4.438;2023-02-28T08:52:04;3.30;53.50
23560;DHT22;11958;50.836;4.438;2023-02-28T08:54:29;3.40;53.70
23560;DHT22;11958;50.836;4.438;2023-02-28T08:56:58;3.10;53.90
23560;DHT22;11958;50.836;4.438;2023-02-28T08:59:24;2.90;53.30
23560;DHT22;11958;50.836;4.438;2023-02-28T09:01:49;3.10;53.40
23560;DHT22;11958;50.836;4.438;2023-02-28T09:04:15;3.20;53.10
23560;DHT22;11958;50.836;4.438;2023-02-28T09:06:41;3.00;53.60
23560;DHT22;11958;50.836;4.438;2023-02-28T09:09:06;3.40;52.20
23560;DHT22;11958;50.836;4.438;2023-02-28T09:11:34;3.40;50.90
23560;DHT22;11958;50.836;4.438;2023-02-28T09:14:13;3.30;50.30
23560;DHT22;11958;50.836;4.438;2023-02-28T09:16:39;3.30;50.40
23560;DHT22;11958;50.836;4.438;2023-02-28T09:19:20;3.30;50.00
23560;DHT22;11958;50.836;4.438;2023-02-28T09:22:15;3.10;50.10
23560;DHT22;11958;50.836;4.438;2023-02-28T09:32:04;3.90;48.70
23560;DHT22;11958;50.836;4.438;2023-02-28T09:35:05;3.70;47.70
23560;DHT22;11958;50.836;4.438;2023-02-28T09:38:02;3.90;48.20
23560;DHT22;11958;50.836;4.438;2023-02-28T09:40:28;4.10;46.70
23560;DHT22;11958;50.836;4.438;2023-02-28T09:43:17;4.10;46.20
23560;DHT22;11958;50.836;4.438;2023-02-28T09:48:47;4.00;44.30
23560;DHT22;11958;50.836;4.438;2023-02-28T09:54:47;3.90;43.70
23560;DHT22;11958;50.836;4.438;2023-02-28T10:00:36;4.20;43.60
23560;DHT22;11958;50.836;4.438;2023-02-28T10:10:04;4.30;43.50
23560;DHT22;11958;50.836;4.438;2023-02-28T10:12:42;4.20;42.60
23560;DHT22;11958;50.836;4.438;2023-02-28T10:15:16;4.20;42.10
23560;DHT22;11958;50.836;4.438;2023-02-28T10:17:49;4.00;42.60
23560;DHT22;11958;50.836;4.438;2023-02-28T10:20:22;3.90;40.90
23560;DHT22;11958;50.836;4.438;2023-02-28T10:26:20;4.40;38.90
23560;DHT22;11958;50.836;4.438;2023-02-28T10:28:57;4.20;39.20
23560;DHT22;11958;50.836;4.438;2023-02-28T10:31:34;4.30;38.70
23560;DHT22;11958;50.836;4.438;2023-02-28T10:34:03;4.50;38.60
23560;DHT22;11958;50.836;4.438;2023-02-28T10:36:31;4.20;38.00
23560;DHT22;11958;50.836;4.438;2023-02-28T10:38:57;4.40;38.50
23560;DHT22;11958;50.836;4.438;2023-02-28T10:41:31;4.60;38.30
23560;DHT22;11958;50.836;4.438;2023-02-28T10:44:36;4.70;37.50
23560;DHT22;11958;50.836;4.438;2023-02-28T10:47:02;4.70;37.60
23560;DHT22;11958;50.836;4.438;2023-02-28T10:49:29;4.80;36.10
23560;DHT22;11958;50.836;4.438;2023-02-28T10:55:27;5.30;36.50
23560;DHT22;11958;50.836;4.438;2023-02-28T10:57:52;5.30;36.30
23560;DHT22;11958;50.836;4.438;2023-02-28T11:00:33;5.40;36.10
23560;DHT22;11958;50.836;4.438;2023-02-28T11:03:38;5.50;35.90
23560;DHT22;11958;50.836;4.438;2023-02-28T11:06:10;5.40;36.60
23560;DHT22;11958;50.836;4.438;2023-02-28T11:09:04;5.20;36.30
23560;DHT22;11958;50.836;4.438;2023-02-28T11:11:51;5.40;35.70
23560;DHT22;11958;50.836;4.438;2023-02-28T11:14:35;5.30;36.90
23560;DHT22;11958;50.836;4.438;2023-02-28T11:17:18;5.30;36.20
23560;DHT22;11958;50.836;4.438;2023-02-28T11:19:52;5.30;35.90
23560;DHT22;11958;50.836;4.438;2023-02-28T11:22:21;5.50;35.00
23560;DHT22;11958;50.836;4.438;2023-02-28T11:25:06;5.80;35.20
23560;DHT22;11958;50.836;4.438;2023-02-28T11:30:00;5.20;34.50
23560;DHT22;11958;50.836;4.438;2023-02-28T11:32:28;5.50;35.00
23560;DHT22;11958;50.836;4.438;2023-02-28T11:37:35;5.80;35.00
23560;DHT22;11958;50.836;4.438;2023-02-28T11:40:41;5.60;35.20
23560;DHT22;11958;50.836;4.438;2023-02-28T11:58:38;5.90;35.00
23560;DHT22;11958;50.836;4.438;2023-02-28T12:01:30;6.40;34.90
23560;DHT22;11958;50.836;4.438;2023-02-28T12:10:30;5.80;35.30
23560;DHT22;11958;50.836;4.438;2023-02-28T12:19:35;6.90;32.10
23560;DHT22;11958;50.836;4.438;2023-02-28T12:22:30;7.20;32.10
23560;DHT22;11958;50.836;4.438;2023-02-28T12:25:43;8.50;29.90
23560;DHT22;11958;50.836;4.438;2023-02-28T12:28:34;10.50;27.30
23560;DHT22;11958;50.836;4.438;2023-02-28T12:31:08;11.20;26.00
23560;DHT22;11958;50.836;4.438;2023-02-28T12:33:49;11.90;25.10
23560;DHT22;11958;50.836;4.438;2023-02-28T12:36:28;12.30;24.70
23560;DHT22;11958;50.836;4.438;2023-02-28T12:39:45;13.20;22.50
23560;DHT22;11958;50.836;4.438;2023-02-28T12:57:00;14.00;20.10
23560;DHT22;11958;50.836;4.438;2023-02-28T13:03:07;14.80;19.80
23560;DHT22;11958;50.836;4.438;2023-02-28T13:06:22;14.60;20.10
23560;DHT22;11958;50.836;4.438;2023-02-28T13:09:25;14.00;19.70
23560;DHT22;11958;50.836;4.438;2023-02-28T13:11:56;13.20;20.70
23560;DHT22;11958;50.836;4.438;2023-02-28T13:14:43;13.40;21.30
23560;DHT22;11958;50.836;4.438;2023-02-28T13:17:23;14.40;20.20
23560;DHT22;11958;50.836;4.438;2023-02-28T13:19:59;14.20;19.60
23560;DHT22;11958;50.836;4.438;2023-02-28T13:25:02;12.70;20.30
23560;DHT22;11958;50.836;4.438;2023-02-28T13:27:35;13.10;20.20
23560;DHT22;11958;50.836;4.438;2023-02-28T13:38:42;13.80;19.50
23560;DHT22;11958;50.836;4.438;2023-02-28T13:49:39;13.60;18.90
23560;DHT22;11958;50.836;4.438;2023-02-28T13:52:20;13.30;19.50
23560;DHT22;11958;50.836;4.438;2023-02-28T14:08:27;15.20;18.20
23560;DHT22;11958;50.836;4.438;2023-02-28T14:11:23;15.00;17.80
23560;DHT22;11958;50.836;4.438;2023-02-28T14:17:15;15.00;18.10
23560;DHT22;11958;50.836;4.438;2023-02-28T14:19:45;15.00;17.90
23560;DHT22;11958;50.836;4.438;2023-02-28T14:39:34;13.50;19.40
23560;DHT22;11958;50.836;4.438;2023-02-28T14:43:05;14.40;18.50
23560;DHT22;11958;50.836;4.438;2023-02-28T14:45:19;14.30;18.30
23560;DHT22;11958;50.836;4.438;2023-02-28T14:47:54;12.80;19.90
23560;DHT22;11958;50.836;4.438;2023-02-28T14:53:21;12.90;19.60
23560;DHT22;11958;50.836;4.438;2023-02-28T14:56:03;12.60;21.80
23560;DHT22;11958;50.836;4.438;2023-02-28T14:58:33;12.40;21.80
23560;DHT22;11958;50.836;4.438;2023-02-28T15:01:03;11.50;22.20
23560;DHT22;11958;50.836;4.438;2023-02-28T15:03:38;11.50;23.00
23560;DHT22;11958;50.836;4.438;2023-02-28T15:06:19;12.30;22.60
23560;DHT22;11958;50.836;4.438;2023-02-28T15:09:08;10.70;23.50
23560;DHT22;11958;50.836;4.438;2023-02-28T15:14:03;9.40;25.00
23560;DHT22;11958;50.836;4.438;2023-02-28T15:16:36;9.20;25.60
23560;DHT22;11958;50.836;4.438;2023-02-28T15:19:36;9.20;25.40
23560;DHT22;11958;50.836;4.438;2023-02-28T15:22:47;9.30;25.70
23560;DHT22;11958;50.836;4.438;2023-02-28T15:25:26;9.60;25.00
23560;DHT22;11958;50.836;4.438;2023-02-28T15:27:56;10.10;25.10
23560;DHT22;11958;50.836;4.438;2023-02-28T15:30:29;10.60;24.80
23560;DHT22;11958;50.836;4.438;2023-02-28T15:33:25;11.00;24.10
23560;DHT22;11958;50.836;4.438;2023-02-28T15:38:37;10.60;24.10
23560;DHT22;11958;50.836;4.438;2023-02-28T15:41:24;10.20;24.80
23560;DHT22;11958;50.836;4.438;2023-02-28T15:44:14;9.90;25.20
23560;DHT22;11958;50.836;4.438;2023-02-28T16:03:42;7.30;29.30
23560;DHT22;11958;50.836;4.438;2023-02-28T16:09:13;6.30;30.20
23560;DHT22;11958;50.836;4.438;2023-02-28T16:12:20;6.00;30.90
23560;DHT22;11958;50.836;4.438;2023-02-28T16:27:19;5.60;32.30
23560;DHT22;11958;50.836;4.438;2023-02-28T16:33:14;5.60;32.60
23560;DHT22;11958;50.836;4.438;2023-02-28T16:35:40;5.30;33.30
23560;DHT22;11958;50.836;4.438;2023-02-28T16:38:14;5.40;33.30
23560;DHT22;11958;50.836;4.438;2023-02-28T16:40:53;5.30;33.70
23560;DHT22;11958;50.836;4.438;2023-02-28T16:43:22;5.70;32.70
23560;DHT22;11958;50.836;4.438;2023-02-28T16:46:03;5.50;33.50
23560;DHT22;11958;50.836;4.438;2023-02-28T16:51:37;5.40;33.60
23560;DHT22;11958;50.836;4.438;2023-02-28T16:54:22;5.40;33.20
23560;DHT22;11958;50.836;4.438;2023-02-28T16:57:01;5.40;33.70
23560;DHT22;11958;50.836;4.438;2023-02-28T16:59:39;5.30;34.30
23560;DHT22;11958;50.836;4.438;2023-02-28T17:02:26;5.30;34.70
23560;DHT22;11958;50.836;4.438;2023-02-28T17:04:57;5.10;35.30
23560;DHT22;11958;50.836;4.438;2023-02-28T17:13:11;5.20;35.00
23560;DHT22;11958;50.836;4.438;2023-02-28T17:15:40;5.20;34.80
23560;DHT22;11958;50.836;4.438;2023-02-28T17:18:06;5.30;34.30
23560;DHT22;11958;50.836;4.438;2023-02-28T17:21:13;5.20;35.00
23560;DHT22;11958;50.836;4.438;2023-02-28T17:23:44;5.10;35.20
23560;DHT22;11958;50.836;4.438;2023-02-28T17:26:37;5.30;34.40
23560;DHT22;11958;50.836;4.438;2023-02-28T17:29:27;5.10;35.50
23560;DHT22;11958;50.836;4.438;2023-02-28T17:31:53;5.30;34.40
23560;DHT22;11958;50.836;4.438;2023-02-28T17:34:28;5.30;35.00
23560;DHT22;11958;50.836;4.438;2023-02-28T17:36:57;5.00;34.90
23560;DHT22;11958;50.836;4.438;2023-02-28T17:39:22;5.10;35.30
23560;DHT22;11958;50.836;4.438;2023-02-28T17:42:06;5.00;35.80
23560;DHT22;11958;50.836;4.438;2023-02-28T17:44:33;4.80;36.40
23560;DHT22;11958;50.836;4.438;2023-02-28T17:46:59;4.70;36.40
23560;DHT22;11958;50.836;4.438;2023-02-28T17:49:24;4.70;36.60
23560;DHT22;11958;50.836;4.438;2023-02-28T17:51:50;4.60;36.50
23560;DHT22;11958;50.836;4.438;2023-02-28T17:54:25;4.80;35.80
23560;DHT22;11958;50.836;4.438;2023-02-28T17:57:19;4.70;37.00
23560;DHT22;11958;50.836;4.438;2023-02-28T17:59:48;4.40;37.10
23560;DHT22;11958;50.836;4.438;2023-02-28T18:27:44;4.10;38.60
23560;DHT22;11958;50.836;4.438;2023-02-28T18:30:27;3.80;38.90
23560;DHT22;11958;50.836;4.438;2023-02-28T18:33:08;4.00;38.90
23560;DHT22;11958;50.836;4.438;2023-02-28T18:35:33;3.80;39.10
23560;DHT22;11958;50.836;4.438;2023-02-28T18:38:16;3.80;39.00
23560;DHT22;11958;50.836;4.438;2023-02-28T18:43:48;4.10;38.60
23560;DHT22;11958;50.836;4.438;2023-02-28T18:46:16;3.70;39.50
23560;DHT22;11958;50.836;4.438;2023-02-28T18:48:42;4.10;39.10
23560;DHT22;11958;50.836;4.438;2023-02-28T18:53:36;4.00;39.70
23560;DHT22;11958;50.836;4.438;2023-02-28T18:56:02;3.90;39.90
23560;DHT22;11958;50.836;4.438;2023-02-28T18:58:29;3.90;38.90
23560;DHT22;11958;50.836;4.438;2023-02-28T19:04:02;4.00;39.00
23560;DHT22;11958;50.836;4.438;2023-02-28T19:06:29;3.70;39.90
23560;DHT22;11958;50.836;4.438;2023-02-28T19:14:55;3.70;40.40
23560;DHT22;11958;50.836;4.438;2023-02-28T19:17:37;3.60;40.40
23560;DHT22;11958;50.836;4.438;2023-02-28T19:20:49;3.30;41.00
23560;DHT22;11958;50.836;4.438;2023-02-28T19:23:38;3.60;40.30
23560;DHT22;11958;50.836;4.438;2023-02-28T19:26:10;3.30;41.20
23560;DHT22;11958;50.836;4.438;2023-02-28T19:32:00;3.60;41.50
23560;DHT22;11958;50.836;4.438;2023-02-28T19:34:42;3.60;41.70
23560;DHT22;11958;50.836;4.438;2023-02-28T19:37:11;3.50;41.60
23560;DHT22;11958;50.836;4.438;2023-02-28T19:42:23;3.30;43.00
23560;DHT22;11958;50.836;4.438;2023-02-28T19:44:49;3.00;43.60
23560;DHT22;11958;50.836;4.438;2023-02-28T19:47:14;3.00;43.00
23560;DHT22;11958;50.836;4.438;2023-02-28T19:49:40;3.10;43.10
23560;DHT22;11958;50.836;4.438;2023-02-28T19:52:24;3.00;43.90
23560;DHT22;11958;50.836;4.438;2023-02-28T19:54:53;3.00;43.90
23560;DHT22;11958;50.836;4.438;2023-02-28T19:57:25;2.80;44.30
23560;DHT22;11958;50.836;4.438;2023-02-28T20:00:00;2.90;44.60
23560;DHT22;11958;50.836;4.438;2023-02-28T20:07:40;2.90;44.30
23560;DHT22;11958;50.836;4.438;2023-02-28T20:10:06;2.60;44.60
23560;DHT22;11958;50.836;4.438;2023-02-28T20:12:39;2.70;45.00
23560;DHT22;11958;50.836;4.438;2023-02-28T20:15:11;2.70;45.20
23560;DHT22;11958;50.836;4.438;2023-02-28T20:17:36;2.60;45.30
23560;DHT22;11958;50.836;4.438;2023-02-28T20:20:03;2.60;45.60
23560;DHT22;11958;50.836;4.438;2023-02-28T20:22:44;2.90;45.90
23560;DHT22;11958;50.836;4.438;2023-02-28T20:25:10;2.80;46.20
23560;DHT22;11958;50.836;4.438;2023-02-28T20:27:39;2.50;45.20
23560;DHT22;11958;50.836;4.438;2023-02-28T20:30:22;2.50;45.80
23560;DHT22;11958;50.836;4.438;2023-02-28T20:32:51;2.50;45.60
23560;DHT22;11958;50.836;4.438;2023-02-28T20:35:22;2.50;46.00
23560;DHT22;11958;50.836;4.438;2023-02-28T20:37:47;2.50;46.20
23560;DHT22;11958;50.836;4.438;2023-02-28T20:40:13;2.40;46.70
23560;DHT22;11958;50.836;4.438;2023-02-28T20:42:39;2.30;47.70
23560;DHT22;11958;50.836;4.438;2023-02-28T20:45:17;2.20;47.70
23560;DHT22;11958;50.836;4.438;2023-02-28T20:47:43;2.10;47.50
23560;DHT22;11958;50.836;4.438;2023-02-28T20:50:12;2.40;48.10
23560;DHT22;11958;50.836;4.438;2023-02-28T20:55:59;2.50;47.70
23560;DHT22;11958;50.836;4.438;2023-02-28T20:58:46;2.60;46.80
23560;DHT22;11958;50.836;4.438;2023-02-28T21:01:27;2.40;48.20
23560;DHT22;11958;50.836;4.438;2023-02-28T21:04:13;2.40;48.50
23560;DHT22;11958;50.836;4.438;2023-02-28T21:06:48;2.30;48.70
23560;DHT22;11958;50.836;4.438;2023-02-28T21:09:16;2.20;48.20
23560;DHT22;11958;50.836;4.438;2023-02-28T21:11:45;2.30;48.80
23560;DHT22;11958;50.836;4.438;2023-02-28T21:14:21;2.40;48.30
23560;DHT22;11958;50.836;4.438;2023-02-28T21:16:48;2.70;47.40
23560;DHT22;11958;50.836;4.438;2023-02-28T21:19:14;2.60;47.90
23560;DHT22;11958;50.836;4.438;2023-02-28T21:25:23;2.00;49.20
23560;DHT22;11958;50.836;4.438;2023-02-28T21:28:19;2.00;49.70
23560;DHT22;11958;50.836;4.438;2023-02-28T21:30:50;1.90;49.80
23560;DHT22;11958;50.836;4.438;2023-02-28T21:33:15;2.10;50.00
23560;DHT22;11958;50.836;4.438;2023-02-28T21:35:41;2.20;50.00
23560;DHT22;11958;50.836;4.438;2023-02-28T22:01:24;2.00;51.50
23560;DHT22;11958;50.836;4.438;2023-02-28T22:03:59;2.20;50.50
23560;DHT22;11958;50.836;4.438;2023-02-28T22:06:43;2.00;51.10
23560;DHT22;11958;50.836;4.438;2023-02-28T22:09:09;1.70;52.10
23560;DHT22;11958;50.836;4.438;2023-02-28T22:11:36;1.40;52.80
23560;DHT22;11958;50.836;4.438;2023-02-28T22:14:03;1.60;53.20
23560;DHT22;11958;50.836;4.438;2023-02-28T22:16:30;1.40;53.60
23560;DHT22;11958;50.836;4.438;2023-02-28T22:19:05;1.60;52.90
23560;DHT22;11958;50.836;4.438;2023-02-28T22:21:33;1.30;53.10
23560;DHT22;11958;50.836;4.438;2023-02-28T22:24:03;1.40;53.50
23560;DHT22;11958;50.836;4.438;2023-02-28T22:26:29;1.30;54.30
23560;DHT22;11958;50.836;4.438;2023-02-28T22:28:55;1.40;54.60
23560;DHT22;11958;50.836;4.438;2023-02-28T22:31:34;1.30;55.00
23560;DHT22;11958;50.836;4.438;2023-02-28T22:34:06;1.20;54.70
23560;DHT22;11958;50.836;4.438;2023-02-28T22:36:55;1.00;55.20
23560;DHT22;11958;50.836;4.438;2023-02-28T22:39:33;1.40;54.90
23560;DHT22;11958;50.836;4.438;2023-02-28T22:41:59;1.20;54.70
23560;DHT22;11958;50.836;4.438;2023-02-28T22:44:25;1.30;55.70
23560;DHT22;11958;50.836;4.438;2023-02-28T22:47:03;1.20;55.30
23560;DHT22;11958;50.836;4.438;2023-02-28T22:49:29;1.30;54.60
23560;DHT22;11958;50.836;4.438;2023-02-28T22:51:54;1.10;54.50
23560;DHT22;11958;50.836;4.438;2023-02-28T22:56:50;1.00;56.00
23560;DHT22;11958;50.836;4.438;2023-02-28T22:59:24;1.00;55.10
23560;DHT22;11958;50.836;4.438;2023-02-28T23:01:50;1.10;54.90
23560;DHT22;11958;50.836;4.438;2023-02-28T23:04:16;1.10;55.10
23560;DHT22;11958;50.836;4.438;2023-02-28T23:06:42;1.00;54.90
23560;DHT22;11958;50.836;4.438;2023-02-28T23:09:15;1.00;55.70